Latest Weather Observations for Fawkner Beacon

IDV60801

Issued at 3:35 am EDT Friday 28 November 2014 (issued every 30 minutes, with the page automatically refreshed every 10 minutes)

About weather observations | Map of weather stations | Latest weather observations for VIC | Other Formats
Station Details ID: 086376 Name: FAWKNER BEACON Lat: -37.91 Lon: 144.93 Height: 17.0 m
Data from the previous 72 hours. | See also: Recent months for locations in Victoria
Date/Time
EDT
Temp
°C
App
Temp
°C
Dew
Point
Rel
Hum
%
Delta-T
°C
Wind Press
QNH
hPa
Press
MSL
hPa
Rain
since 9 am
mm
Dir
 
Spd
km/h
Gust
km/h
Spd
kts
Gust
kts
28/03:30am - - - - - SE 24 28 13 15 - - -
28/03:00am - - - - - SE 20 28 11 15 - - -
28/02:30am - - - - - SE 20 26 11 14 - - -
28/02:00am - - - - - SE 20 26 11 14 - - -
28/01:30am - - - - - SE 19 24 10 13 - - -
28/01:00am - - - - - ESE 22 26 12 14 - - -
28/12:30am - - - - - SE 19 24 10 13 - - -
28/12:00am - - - - - SE 15 22 8 12 - - -
 
Date/Time
EDT
Temp
°C
App
Temp
°C
Dew
Point
Rel
Hum
%
Delta-T
°C
Wind Press
QNH
hPa
Press
MSL
hPa
Rain
since 9 am
mm
Dir
 
Spd
km/h
Gust
km/h
Spd
kts
Gust
kts
27/11:30pm - - - - - ESE 20 28 11 15 - - -
27/11:00pm - - - - - SE 22 28 12 15 - - -
27/10:30pm - - - - - ESE 20 28 11 15 - - -
27/10:00pm - - - - - ESE 20 26 11 14 - - -
27/09:30pm - - - - - SE 22 26 12 14 - - -
27/09:00pm - - - - - SE 22 26 12 14 - - -
27/08:30pm - - - - - SE 24 30 13 16 - - -
27/08:00pm - - - - - SE 26 30 14 16 - - -
27/07:30pm - - - - - SE 26 30 14 16 - - -
27/07:00pm - - - - - SSE 28 33 15 18 - - -
27/06:30pm - - - - - SSE 28 32 15 17 - - -
27/06:00pm - - - - - SSE 28 33 15 18 - - -
27/05:30pm - - - - - SSE 28 33 15 18 - - -
27/05:00pm - - - - - SSE 28 32 15 17 - - -
27/04:30pm - - - - - SSE 28 33 15 18 - - -
27/04:00pm - - - - - SSE 30 33 16 18 - - -
27/03:30pm - - - - - S 28 33 15 18 - - -
27/03:00pm - - - - - SSE 26 33 14 18 - - -
27/02:30pm - - - - - S 26 32 14 17 - - -
27/02:00pm - - - - - S 28 32 15 17 - - -
27/01:30pm - - - - - SSE 24 30 13 16 - - -
27/01:00pm - - - - - SSE 22 28 12 15 - - -
27/12:30pm - - - - - SSE 19 24 10 13 - - -
27/12:00pm - - - - - SSE 22 26 12 14 - - -
27/11:30am - - - - - SSE 20 30 11 16 - - -
27/11:00am - - - - - SSE 19 26 10 14 - - -
27/10:30am - - - - - SSE 20 28 11 15 - - -
27/10:00am - - - - - ESE 20 26 11 14 - - -
27/09:30am - - - - - SE 20 28 11 15 - - -
27/09:00am - - - - - SE 22 30 12 16 - - -
27/08:30am - - - - - SSE 20 28 11 15 - - -
27/08:00am - - - - - SE 22 28 12 15 - - -
27/07:30am - - - - - SE 19 26 10 14 - - -
27/07:00am - - - - - SSE 22 32 12 17 - - -
27/06:30am - - - - - SE 22 30 12 16 - - -
27/06:00am - - - - - SE 20 30 11 16 - - -
27/05:30am - - - - - ESE 17 26 9 14 - - -
27/05:00am - - - - - SE 20 28 11 15 - - -
27/04:30am - - - - - SE 24 32 13 17 - - -
27/04:00am - - - - - SSE 15 20 8 11 - - -
27/03:30am - - - - - SE 24 32 13 17 - - -
27/03:00am - - - - - SE 22 32 12 17 - - -
27/02:30am - - - - - SSE 26 33 14 18 - - -
27/02:00am - - - - - SSE 22 28 12 15 - - -
27/01:30am - - - - - SE 22 30 12 16 - - -
27/01:00am - - - - - ESE 22 30 12 16 - - -
27/12:30am - - - - - SSE 17 22 9 12 - - -
27/12:00am - - - - - SE 26 32 14 17 - - -
 
Date/Time
EDT
Temp
°C
App
Temp
°C
Dew
Point
Rel
Hum
%
Delta-T
°C
Wind Press
QNH
hPa
Press
MSL
hPa
Rain
since 9 am
mm
Dir
 
Spd
km/h
Gust
km/h
Spd
kts
Gust
kts
26/11:30pm - - - - - S 32 39 17 21 - - -
26/11:00pm - - - - - S 32 43 17 23 - - -
26/10:30pm - - - - - SSE 30 39 16 21 - - -
26/10:00pm - - - - - SSE 32 39 17 21 - - -
26/09:30pm - - - - - SSE 28 33 15 18 - - -
26/09:00pm - - - - - SSE 30 39 16 21 - - -
26/08:30pm - - - - - SSE 32 41 17 22 - - -
26/08:00pm - - - - - SSE 32 35 17 19 - - -
26/07:30pm - - - - - S 30 33 16 18 - - -
26/07:00pm - - - - - SSE 30 33 16 18 - - -
26/06:30pm - - - - - SSE 30 35 16 19 - - -
26/06:00pm - - - - - SSE 30 35 16 19 - - -
26/05:30pm - - - - - SSE 28 35 15 19 - - -
26/05:00pm - - - - - SSE 30 39 16 21 - - -
26/04:30pm - - - - - SSE 28 33 15 18 - - -
26/04:00pm - - - - - SSE 32 39 17 21 - - -
26/03:30pm - - - - - SSE 33 41 18 22 - - -
26/03:00pm - - - - - SSE 28 32 15 17 - - -
26/02:30pm - - - - - SE 17 22 9 12 - - -
26/02:00pm - - - - - ESE 11 15 6 8 - - -
26/01:30pm - - - - - SSE 7 11 4 6 - - -
26/01:00pm - - - - - S 11 15 6 8 - - -
26/12:30pm - - - - - SSW 11 15 6 8 - - -
26/12:00pm - - - - - SSW 11 15 6 8 - - -
26/11:30am - - - - - SW 13 17 7 9 - - -
26/11:00am - - - - - WSW 15 20 8 11 - - -
26/10:30am - - - - - SW 17 24 9 13 - - -
26/10:00am - - - - - WSW 17 22 9 12 - - -
26/09:30am - - - - - W 19 24 10 13 - - -
26/09:00am - - - - - W 20 26 11 14 - - -
26/08:30am - - - - - W 19 22 10 12 - - -
26/08:00am - - - - - W 19 22 10 12 - - -
26/07:30am - - - - - W 17 22 9 12 - - -
26/07:00am - - - - - W 20 28 11 15 - - -
26/06:30am - - - - - WSW 22 28 12 15 - - -
26/06:00am - - - - - W 22 26 12 14 - - -
26/05:30am - - - - - W 20 26 11 14 - - -
26/05:00am - - - - - W 22 28 12 15 - - -
26/04:30am - - - - - W 22 26 12 14 - - -
26/04:00am - - - - - W 24 30 13 16 - - -
26/03:30am - - - - - W 20 26 11 14 - - -
26/03:00am - - - - - W 20 24 11 13 - - -
26/02:30am - - - - - W 20 24 11 13 - - -
26/02:00am - - - - - W 20 26 11 14 - - -
26/01:30am - - - - - W 22 26 12 14 - - -
26/01:00am - - - - - W 20 24 11 13 - - -
26/12:30am - - - - - W 20 24 11 13 - - -
26/12:00am - - - - - SW 26 32 14 17 - - -
 
Date/Time
EDT
Temp
°C
App
Temp
°C
Dew
Point
Rel
Hum
%
Delta-T
°C
Wind Press
QNH
hPa
Press
MSL
hPa
Rain
since 9 am
mm
Dir
 
Spd
km/h
Gust
km/h
Spd
kts
Gust
kts
25/11:30pm - - - - - SW 30 35 16 19 - - -
25/11:00pm - - - - - SW 28 35 15 19 - - -
25/10:30pm - - - - - SSW 32 39 17 21 - - -
25/10:00pm - - - - - SSW 30 35 16 19 - - -
25/09:30pm - - - - - SSW 33 41 18 22 - - -
25/09:00pm - - - - - S 30 33 16 18 - - -
25/08:30pm - - - - - S 30 35 16 19 - - -
25/08:00pm - - - - - SSE 32 39 17 21 - - -
25/07:30pm - - - - - SSE 30 35 16 19 - - -
25/07:00pm - - - - - SSE 28 33 15 18 - - -
25/06:30pm - - - - - SSE 32 39 17 21 - - -
25/06:00pm - - - - - SE 26 32 14 17 - - -
25/05:30pm - - - - - SE 28 32 15 17 - - -
25/05:00pm - - - - - SSE 28 32 15 17 - - -
25/04:30pm - - - - - SSE 20 26 11 14 - - -
25/04:00pm - - - - - SSW 26 32 14 17 - - -
25/03:30pm - - - - - SSW 32 35 17 19 - - -
25/03:00pm - - - - - SSW 30 39 16 21 - - -
25/02:30pm - - - - - SSW 32 35 17 19 - - -
25/02:00pm - - - - - SSW 30 35 16 19 - - -
25/01:30pm - - - - - SSW 22 28 12 15 - - -
25/01:00pm - - - - - SW 26 33 14 18 - - -
25/12:30pm - - - - - SW 32 41 17 22 - - -
25/12:00pm - - - - - SW 26 32 14 17 - - -
25/11:30am - - - - - SW 33 44 18 24 - - -
25/11:00am - - - - - WSW 30 39 16 21 - - -
25/10:30am - - - - - WSW 30 41 16 22 - - -
25/10:00am - - - - - WSW 32 39 17 21 - - -
25/09:30am - - - - - WSW 32 43 17 23 - - -
25/09:00am - - - - - WSW 32 41 17 22 - - -
25/08:30am - - - - - W 20 26 11 14 - - -
25/08:00am - - - - - W 24 30 13 16 - - -
25/07:30am - - - - - W 24 33 13 18 - - -
25/07:00am - - - - - W 24 30 13 16 - - -
25/06:30am - - - - - W 28 44 15 24 - - -
25/06:00am - - - - - W 30 41 16 22 - - -
25/05:30am - - - - - W 32 43 17 23 - - -
25/05:00am - - - - - W 35 44 19 24 - - -
25/04:30am - - - - - W 33 41 18 22 - - -
25/04:00am - - - - - W 39 50 21 27 - - -

Other Formats:

Comma delimited format used in spreadsheet applications
http://www.bom.gov.au/fwo/IDV60801/IDV60801.95872.axf

JavaScript Object Notation format (JSON) in row-major order
http://www.bom.gov.au/fwo/IDV60801/IDV60801.95872.json